sensor_id;sensor_type;location;lat;lon;timestamp;pressure;altitude;pressure_sealevel;temperature;humidity
49065;BME280;34877;27.062;-82.386;2022-09-09T00:08:38;100720.27;;;15.74;65.65
49065;BME280;34877;27.062;-82.386;2022-09-09T00:18:51;100723.90;;;16.31;67.69
49065;BME280;34877;27.062;-82.386;2022-09-09T00:29:03;100739.03;;;16.39;67.75
49065;BME280;34877;27.062;-82.386;2022-09-09T00:39:12;100743.70;;;16.69;67.90
49065;BME280;34877;27.062;-82.386;2022-09-09T00:49:26;100744.60;;;16.60;68.55
49065;BME280;34877;27.062;-82.386;2022-09-09T00:59:39;100761.15;;;16.86;69.69
49065;BME280;34877;27.062;-82.386;2022-09-09T01:09:54;100788.39;;;16.93;69.96
49065;BME280;34877;27.062;-82.386;2022-09-09T01:20:08;100789.54;;;16.89;70.18
49065;BME280;34877;27.062;-82.386;2022-09-09T01:30:18;100776.98;;;16.80;70.92
49065;BME280;34877;27.062;-82.386;2022-09-09T01:40:22;100779.23;;;16.82;71.54
49065;BME280;34877;27.062;-82.386;2022-09-09T01:50:27;100800.72;;;16.80;72.02
49065;BME280;34877;27.062;-82.386;2022-09-09T02:00:32;100808.75;;;15.91;64.66
49065;BME280;34877;27.062;-82.386;2022-09-09T02:10:42;100828.30;;;14.49;61.17
49065;BME280;34877;27.062;-82.386;2022-09-09T02:20:47;100860.17;;;14.22;59.29
49065;BME280;34877;27.062;-82.386;2022-09-09T02:30:52;100873.70;;;13.92;58.57
49065;BME280;34877;27.062;-82.386;2022-09-09T02:40:57;100876.36;;;13.61;58.23
49065;BME280;34877;27.062;-82.386;2022-09-09T02:51:09;100876.39;;;13.80;58.77
49065;BME280;34877;27.062;-82.386;2022-09-09T03:01:22;100869.76;;;13.05;59.23
49065;BME280;34877;27.062;-82.386;2022-09-09T03:11:28;100849.35;;;13.13;59.53
49065;BME280;34877;27.062;-82.386;2022-09-09T03:21:32;100827.67;;;13.55;60.16
49065;BME280;34877;27.062;-82.386;2022-09-09T03:31:37;100807.51;;;13.65;61.81
49065;BME280;34877;27.062;-82.386;2022-09-09T03:41:42;100810.65;;;14.28;61.74
49065;BME280;34877;27.062;-82.386;2022-09-09T03:51:47;100810.28;;;13.09;62.06
49065;BME280;34877;27.062;-82.386;2022-09-09T04:01:52;100785.08;;;13.48;63.58
49065;BME280;34877;27.062;-82.386;2022-09-09T04:11:57;100776.81;;;13.13;63.64
49065;BME280;34877;27.062;-82.386;2022-09-09T04:22:03;100785.35;;;13.13;64.88
49065;BME280;34877;27.062;-82.386;2022-09-09T04:32:07;100803.86;;;13.60;64.75
49065;BME280;34877;27.062;-82.386;2022-09-09T04:42:12;100811.83;;;13.34;63.01
49065;BME280;34877;27.062;-82.386;2022-09-09T04:52:16;100825.78;;;13.94;64.19
49065;BME280;34877;27.062;-82.386;2022-09-09T05:02:21;100834.77;;;12.83;63.53
49065;BME280;34877;27.062;-82.386;2022-09-09T05:12:27;100841.88;;;13.87;64.88
49065;BME280;34877;27.062;-82.386;2022-09-09T05:22:32;100836.86;;;13.84;65.30
49065;BME280;34877;27.062;-82.386;2022-09-09T05:32:36;100847.17;;;13.25;65.69
49065;BME280;34877;27.062;-82.386;2022-09-09T05:42:42;100848.23;;;14.25;64.60
49065;BME280;34877;27.062;-82.386;2022-09-09T05:52:47;100851.56;;;13.78;64.37
49065;BME280;34877;27.062;-82.386;2022-09-09T06:02:53;100843.96;;;13.31;65.68
49065;BME280;34877;27.062;-82.386;2022-09-09T06:12:57;100850.06;;;14.25;64.61
49065;BME280;34877;27.062;-82.386;2022-09-09T06:23:03;100843.13;;;13.61;64.62
49065;BME280;34877;27.062;-82.386;2022-09-09T06:33:07;100827.75;;;13.65;65.71
49065;BME280;34877;27.062;-82.386;2022-09-09T06:43:12;100832.02;;;13.96;64.38
49065;BME280;34877;27.062;-82.386;2022-09-09T06:53:17;100810.93;;;13.39;64.41
49065;BME280;34877;27.062;-82.386;2022-09-09T07:03:22;100806.27;;;14.12;65.29
49065;BME280;34877;27.062;-82.386;2022-09-09T07:13:27;100782.80;;;14.03;64.54
49065;BME280;34877;27.062;-82.386;2022-09-09T07:23:32;100784.08;;;13.76;63.94
49065;BME280;34877;27.062;-82.386;2022-09-09T07:33:37;100773.48;;;14.11;65.38
49065;BME280;34877;27.062;-82.386;2022-09-09T07:43:42;100775.57;;;14.21;64.53
49065;BME280;34877;27.062;-82.386;2022-09-09T07:53:47;100771.95;;;13.28;63.76
49065;BME280;34877;27.062;-82.386;2022-09-09T08:03:55;100769.26;;;14.32;65.29
49065;BME280;34877;27.062;-82.386;2022-09-09T08:14:02;100775.21;;;14.45;64.95
49065;BME280;34877;27.062;-82.386;2022-09-09T08:24:08;100769.70;;;13.50;66.43
49065;BME280;34877;27.062;-82.386;2022-09-09T08:34:13;100761.06;;;14.18;65.45
49065;BME280;34877;27.062;-82.386;2022-09-09T08:44:23;100769.43;;;14.62;65.33
49065;BME280;34877;27.062;-82.386;2022-09-09T08:54:34;100761.87;;;13.69;64.09
49065;BME280;34877;27.062;-82.386;2022-09-09T09:04:50;100748.90;;;14.60;65.41
49065;BME280;34877;27.062;-82.386;2022-09-09T09:14:57;100734.04;;;14.38;64.85
49065;BME280;34877;27.062;-82.386;2022-09-09T09:25:09;100727.08;;;14.47;64.91
49065;BME280;34877;27.062;-82.386;2022-09-09T09:35:17;100719.64;;;14.88;64.77
49065;BME280;34877;27.062;-82.386;2022-09-09T09:45:28;100718.26;;;14.51;64.97
49065;BME280;34877;27.062;-82.386;2022-09-09T09:55:33;100724.09;;;14.92;65.59
49065;BME280;34877;27.062;-82.386;2022-09-09T10:05:37;100725.15;;;14.92;65.64
49065;BME280;34877;27.062;-82.386;2022-09-09T10:15:56;100742.64;;;14.90;66.14
49065;BME280;34877;27.062;-82.386;2022-09-09T10:26:18;100760.88;;;14.40;66.23
49065;BME280;34877;27.062;-82.386;2022-09-09T10:36:27;100777.78;;;14.76;66.18
49065;BME280;34877;27.062;-82.386;2022-09-09T10:46:39;100796.43;;;14.96;66.26
49065;BME280;34877;27.062;-82.386;2022-09-09T10:56:52;100805.89;;;14.71;66.56
49065;BME280;34877;27.062;-82.386;2022-09-09T11:06:57;100814.39;;;14.96;66.80
49065;BME280;34877;27.062;-82.386;2022-09-09T11:17:04;100816.48;;;14.97;67.10
49065;BME280;34877;27.062;-82.386;2022-09-09T11:27:15;100823.42;;;14.79;67.35
49065;BME280;34877;27.062;-82.386;2022-09-09T11:37:35;100829.87;;;15.13;67.32
49065;BME280;34877;27.062;-82.386;2022-09-09T11:47:53;100855.30;;;15.44;67.49
49065;BME280;34877;27.062;-82.386;2022-09-09T11:57:58;100875.50;;;15.12;68.03
49065;BME280;34877;27.062;-82.386;2022-09-09T12:08:03;100881.43;;;15.43;68.03
49065;BME280;34877;27.062;-82.386;2022-09-09T12:18:14;100880.83;;;14.81;69.10
49065;BME280;34877;27.062;-82.386;2022-09-09T12:28:20;100884.48;;;14.85;68.57
49065;BME280;34877;27.062;-82.386;2022-09-09T12:38:35;100888.52;;;15.74;68.21
49065;BME280;34877;27.062;-82.386;2022-09-09T12:48:42;100896.22;;;15.16;68.17
49065;BME280;34877;27.062;-82.386;2022-09-09T12:58:49;100904.93;;;15.25;68.30
49065;BME280;34877;27.062;-82.386;2022-09-09T13:08:53;100906.84;;;15.31;68.21
49065;BME280;34877;27.062;-82.386;2022-09-09T13:18:57;100917.39;;;15.86;68.67
49065;BME280;34877;27.062;-82.386;2022-09-09T13:29:16;100903.22;;;15.61;70.14
49065;BME280;34877;27.062;-82.386;2022-09-09T13:39:22;100895.92;;;15.96;69.92
49065;BME280;34877;27.062;-82.386;2022-09-09T13:49:29;100891.49;;;16.24;69.52
49065;BME280;34877;27.062;-82.386;2022-09-09T13:59:32;100891.39;;;16.35;68.80
49065;BME280;34877;27.062;-82.386;2022-09-09T14:09:37;100902.99;;;16.15;68.91
49065;BME280;34877;27.062;-82.386;2022-09-09T14:19:42;100913.34;;;16.19;69.34
49065;BME280;34877;27.062;-82.386;2022-09-09T14:29:47;100933.91;;;16.92;68.43
49065;BME280;34877;27.062;-82.386;2022-09-09T14:39:52;100944.57;;;16.35;68.59
49065;BME280;34877;27.062;-82.386;2022-09-09T14:49:57;100948.08;;;16.89;69.33
49065;BME280;34877;27.062;-82.386;2022-09-09T15:00:02;100957.21;;;16.86;69.73
49065;BME280;34877;27.062;-82.386;2022-09-09T15:10:08;100961.56;;;17.13;70.47
49065;BME280;34877;27.062;-82.386;2022-09-09T15:20:12;100970.46;;;16.35;70.34
49065;BME280;34877;27.062;-82.386;2022-09-09T15:30:18;100964.24;;;16.81;70.05
49065;BME280;34877;27.062;-82.386;2022-09-09T15:40:22;100972.74;;;16.95;70.17
49065;BME280;34877;27.062;-82.386;2022-09-09T15:50:27;100984.53;;;17.31;70.51
49065;BME280;34877;27.062;-82.386;2022-09-09T16:00:32;100977.41;;;17.46;70.84
49065;BME280;34877;27.062;-82.386;2022-09-09T16:10:37;100964.71;;;17.43;70.96
49065;BME280;34877;27.062;-82.386;2022-09-09T16:20:41;100985.58;;;17.29;71.38
49065;BME280;34877;27.062;-82.386;2022-09-09T16:30:47;100981.62;;;17.23;72.35
49065;BME280;34877;27.062;-82.386;2022-09-09T16:40:52;100990.18;;;17.85;72.54
49065;BME280;34877;27.062;-82.386;2022-09-09T16:51:03;100985.01;;;17.67;73.49
49065;BME280;34877;27.062;-82.386;2022-09-09T17:01:07;100969.99;;;17.80;73.72
49065;BME280;34877;27.062;-82.386;2022-09-09T17:11:13;100955.98;;;17.78;74.20
49065;BME280;34877;27.062;-82.386;2022-09-09T17:21:20;100983.53;;;17.52;74.26
49065;BME280;34877;27.062;-82.386;2022-09-09T17:31:28;100979.95;;;18.08;74.32
49065;BME280;34877;27.062;-82.386;2022-09-09T17:41:34;100994.91;;;18.25;74.63
49065;BME280;34877;27.062;-82.386;2022-09-09T17:51:37;100981.31;;;17.89;75.35
49065;BME280;34877;27.062;-82.386;2022-09-09T18:01:44;100986.45;;;18.62;75.45
49065;BME280;34877;27.062;-82.386;2022-09-09T18:11:49;101010.20;;;18.46;75.97
49065;BME280;34877;27.062;-82.386;2022-09-09T18:21:53;101039.37;;;18.85;75.84
49065;BME280;34877;27.062;-82.386;2022-09-09T18:31:56;101031.20;;;18.33;76.69
49065;BME280;34877;27.062;-82.386;2022-09-09T18:42:02;101061.49;;;18.13;77.40
49065;BME280;34877;27.062;-82.386;2022-09-09T18:52:07;101035.20;;;18.14;77.55
49065;BME280;34877;27.062;-82.386;2022-09-09T19:02:12;101005.78;;;18.13;77.80
49065;BME280;34877;27.062;-82.386;2022-09-09T19:12:17;101002.11;;;18.29;78.36
49065;BME280;34877;27.062;-82.386;2022-09-09T19:22:21;100988.53;;;18.48;78.54
49065;BME280;34877;27.062;-82.386;2022-09-09T19:32:27;101008.27;;;18.22;78.87
49065;BME280;34877;27.062;-82.386;2022-09-09T19:42:31;101003.29;;;17.99;79.01
49065;BME280;34877;27.062;-82.386;2022-09-09T19:52:37;101018.25;;;18.04;79.16
49065;BME280;34877;27.062;-82.386;2022-09-09T20:02:42;101038.70;;;18.41;79.37
49065;BME280;34877;27.062;-82.386;2022-09-09T20:12:47;101023.51;;;18.32;79.93
49065;BME280;34877;27.062;-82.386;2022-09-09T20:22:52;101032.33;;;18.03;81.25
49065;BME280;34877;27.062;-82.386;2022-09-09T20:32:57;101048.02;;;18.13;83.02
49065;BME280;34877;27.062;-82.386;2022-09-09T20:43:02;101036.62;;;18.57;83.13
49065;BME280;34877;27.062;-82.386;2022-09-09T20:53:07;101029.21;;;18.57;84.47
49065;BME280;34877;27.062;-82.386;2022-09-09T21:03:11;101016.83;;;18.36;86.20
49065;BME280;34877;27.062;-82.386;2022-09-09T21:13:17;101083.02;;;18.16;77.87
49065;BME280;34877;27.062;-82.386;2022-09-09T21:23:22;101101.79;;;17.04;70.38
49065;BME280;34877;27.062;-82.386;2022-09-09T21:33:28;101128.04;;;17.01;73.79
49065;BME280;34877;27.062;-82.386;2022-09-09T21:43:33;101129.06;;;17.18;72.51
49065;BME280;34877;27.062;-82.386;2022-09-09T21:53:37;101076.98;;;17.17;72.55
49065;BME280;34877;27.062;-82.386;2022-09-09T22:03:42;101086.96;;;17.55;72.21
49065;BME280;34877;27.062;-82.386;2022-09-09T22:13:47;101089.07;;;17.27;73.11
49065;BME280;34877;27.062;-82.386;2022-09-09T22:23:52;101099.74;;;16.90;70.31
49065;BME280;34877;27.062;-82.386;2022-09-09T22:33:57;101098.23;;;17.48;72.89
49065;BME280;34877;27.062;-82.386;2022-09-09T22:44:02;101088.86;;;17.32;73.06
49065;BME280;34877;27.062;-82.386;2022-09-09T22:54:07;101081.03;;;17.56;73.53
49065;BME280;34877;27.062;-82.386;2022-09-09T23:04:12;101100.50;;;17.20;73.87
49065;BME280;34877;27.062;-82.386;2022-09-09T23:14:17;101123.45;;;17.21;74.45
49065;BME280;34877;27.062;-82.386;2022-09-09T23:24:22;101127.84;;;17.28;73.76
49065;BME280;34877;27.062;-82.386;2022-09-09T23:34:26;101111.88;;;17.15;73.88
49065;BME280;34877;27.062;-82.386;2022-09-09T23:44:31;101108.26;;;17.46;74.38
49065;BME280;34877;27.062;-82.386;2022-09-09T23:54:37;101111.05;;;17.65;75.03
